sensor_id;sensor_type;location;lat;lon;timestamp;pressure;altitude;pressure_sealevel;temperature;humidity
68197;BME280;55019;49.382;11.358;2022-07-29T00:00:09;96575.47;;;20.99;41.78
68197;BME280;55019;49.382;11.358;2022-07-29T00:02:35;96567.72;;;20.93;41.70
68197;BME280;55019;49.382;11.358;2022-07-29T00:05:02;96567.81;;;20.86;42.04
68197;BME280;55019;49.382;11.358;2022-07-29T00:07:27;96566.09;;;20.92;41.79
68197;BME280;55019;49.382;11.358;2022-07-29T00:09:55;96550.31;;;20.80;41.81
68197;BME280;55019;49.382;11.358;2022-07-29T00:12:23;96558.47;;;20.90;41.90
68197;BME280;55019;49.382;11.358;2022-07-29T00:14:48;96560.28;;;20.90;41.63
68197;BME280;55019;49.382;11.358;2022-07-29T00:17:14;96551.38;;;21.02;41.16
68197;BME280;55019;49.382;11.358;2022-07-29T00:19:39;96550.69;;;20.95;41.04
68197;BME280;55019;49.382;11.358;2022-07-29T00:22:05;96558.69;;;20.89;42.20
68197;BME280;55019;49.382;11.358;2022-07-29T00:24:30;96546.34;;;20.89;41.79
68197;BME280;55019;49.382;11.358;2022-07-29T00:26:55;96554.13;;;20.84;41.88
68197;BME280;55019;49.382;11.358;2022-07-29T00:29:21;96552.94;;;20.80;41.70
68197;BME280;55019;49.382;11.358;2022-07-29T00:31:46;96551.50;;;20.84;42.64
68197;BME280;55019;49.382;11.358;2022-07-29T00:34:12;96555.34;;;20.82;42.09
68197;BME280;55019;49.382;11.358;2022-07-29T00:36:56;96556.47;;;20.74;42.02
68197;BME280;55019;49.382;11.358;2022-07-29T00:39:22;96553.41;;;20.77;41.96
68197;BME280;55019;49.382;11.358;2022-07-29T00:41:47;96556.69;;;20.73;42.84
68197;BME280;55019;49.382;11.358;2022-07-29T00:44:13;96548.47;;;20.69;43.18
68197;BME280;55019;49.382;11.358;2022-07-29T00:46:39;96542.66;;;20.67;42.84
68197;BME280;55019;49.382;11.358;2022-07-29T00:49:04;96540.59;;;20.69;42.91
68197;BME280;55019;49.382;11.358;2022-07-29T00:51:30;96531.25;;;20.73;42.96
68197;BME280;55019;49.382;11.358;2022-07-29T00:53:56;96537.41;;;20.67;43.05
68197;BME280;55019;49.382;11.358;2022-07-29T00:56:22;96535.78;;;20.66;42.94
68197;BME280;55019;49.382;11.358;2022-07-29T00:58:48;96539.09;;;20.62;43.96
68197;BME280;55019;49.382;11.358;2022-07-29T01:01:18;96523.00;;;20.58;44.16
68197;BME280;55019;49.382;11.358;2022-07-29T01:03:44;96524.84;;;20.69;43.84
68197;BME280;55019;49.382;11.358;2022-07-29T01:06:09;96512.75;;;20.68;44.07
68197;BME280;55019;49.382;11.358;2022-07-29T01:08:35;96514.09;;;20.59;44.48
68197;BME280;55019;49.382;11.358;2022-07-29T01:11:02;96515.44;;;20.50;45.57
68197;BME280;55019;49.382;11.358;2022-07-29T01:13:29;96510.41;;;20.38;46.95
68197;BME280;55019;49.382;11.358;2022-07-29T01:15:59;96518.59;;;20.30;48.20
68197;BME280;55019;49.382;11.358;2022-07-29T01:18:39;96515.91;;;20.07;49.56
68197;BME280;55019;49.382;11.358;2022-07-29T01:30:10;96506.06;;;19.73;51.19
68197;BME280;55019;49.382;11.358;2022-07-29T01:32:38;96507.34;;;19.64;52.03
68197;BME280;55019;49.382;11.358;2022-07-29T01:35:12;96508.81;;;19.60;51.51
68197;BME280;55019;49.382;11.358;2022-07-29T01:38:05;96504.31;;;19.67;50.87
68197;BME280;55019;49.382;11.358;2022-07-29T01:40:38;96502.28;;;19.51;51.73
68197;BME280;55019;49.382;11.358;2022-07-29T01:43:17;96502.41;;;19.56;51.45
68197;BME280;55019;49.382;11.358;2022-07-29T01:45:59;96506.94;;;19.49;51.33
68197;BME280;55019;49.382;11.358;2022-07-29T01:48:45;96492.22;;;19.48;51.63
68197;BME280;55019;49.382;11.358;2022-07-29T01:54:22;96501.56;;;19.44;51.73
68197;BME280;55019;49.382;11.358;2022-07-29T01:56:51;96499.97;;;19.43;52.28
68197;BME280;55019;49.382;11.358;2022-07-29T01:59:20;96501.34;;;19.45;52.42
68197;BME280;55019;49.382;11.358;2022-07-29T02:01:47;96502.38;;;19.44;52.37
68197;BME280;55019;49.382;11.358;2022-07-29T02:04:15;96491.59;;;19.34;51.59
68197;BME280;55019;49.382;11.358;2022-07-29T02:06:43;96511.97;;;19.32;51.92
68197;BME280;55019;49.382;11.358;2022-07-29T02:09:10;96525.28;;;19.49;51.89
68197;BME280;55019;49.382;11.358;2022-07-29T02:11:38;96519.81;;;19.32;52.14
68197;BME280;55019;49.382;11.358;2022-07-29T02:14:04;96519.03;;;19.32;51.95
68197;BME280;55019;49.382;11.358;2022-07-29T02:16:32;96514.06;;;19.42;52.46
68197;BME280;55019;49.382;11.358;2022-07-29T02:19:01;96510.00;;;19.28;52.15
68197;BME280;55019;49.382;11.358;2022-07-29T02:21:27;96512.34;;;19.18;53.05
68197;BME280;55019;49.382;11.358;2022-07-29T02:23:56;96511.63;;;19.29;51.15
68197;BME280;55019;49.382;11.358;2022-07-29T02:26:24;96517.28;;;19.26;53.16
68197;BME280;55019;49.382;11.358;2022-07-29T02:28:53;96514.81;;;19.31;52.76
68197;BME280;55019;49.382;11.358;2022-07-29T02:31:26;96517.88;;;19.28;52.69
68197;BME280;55019;49.382;11.358;2022-07-29T02:33:55;96516.56;;;19.19;53.92
68197;BME280;55019;49.382;11.358;2022-07-29T02:36:23;96514.22;;;19.29;51.91
68197;BME280;55019;49.382;11.358;2022-07-29T02:38:50;96527.97;;;19.24;51.84
68197;BME280;55019;49.382;11.358;2022-07-29T02:41:43;96523.09;;;19.28;52.00
68197;BME280;55019;49.382;11.358;2022-07-29T02:44:12;96522.22;;;19.34;52.19
68197;BME280;55019;49.382;11.358;2022-07-29T02:46:43;96518.31;;;19.25;51.57
68197;BME280;55019;49.382;11.358;2022-07-29T02:49:18;96503.34;;;19.07;51.42
68197;BME280;55019;49.382;11.358;2022-07-29T02:52:00;96508.59;;;19.07;51.82
68197;BME280;55019;49.382;11.358;2022-07-29T02:54:44;96508.69;;;19.19;51.72
68197;BME280;55019;49.382;11.358;2022-07-29T02:57:18;96502.09;;;19.10;50.55
68197;BME280;55019;49.382;11.358;2022-07-29T02:59:45;96499.56;;;19.03;51.00
68197;BME280;55019;49.382;11.358;2022-07-29T03:02:14;96502.53;;;19.07;50.82
68197;BME280;55019;49.382;11.358;2022-07-29T03:04:40;96500.78;;;19.01;50.70
68197;BME280;55019;49.382;11.358;2022-07-29T03:07:08;96500.34;;;19.04;51.09
68197;BME280;55019;49.382;11.358;2022-07-29T03:09:35;96505.34;;;18.88;51.51
68197;BME280;55019;49.382;11.358;2022-07-29T03:12:01;96510.66;;;18.99;50.64
68197;BME280;55019;49.382;11.358;2022-07-29T03:14:26;96513.72;;;18.96;51.26
68197;BME280;55019;49.382;11.358;2022-07-29T03:16:53;96513.09;;;19.00;52.03
68197;BME280;55019;49.382;11.358;2022-07-29T03:19:19;96516.22;;;19.09;51.98
68197;BME280;55019;49.382;11.358;2022-07-29T03:21:45;96516.50;;;19.01;53.42
68197;BME280;55019;49.382;11.358;2022-07-29T03:24:41;96521.16;;;18.99;54.16
68197;BME280;55019;49.382;11.358;2022-07-29T03:27:07;96504.56;;;18.87;54.20
68197;BME280;55019;49.382;11.358;2022-07-29T03:29:32;96510.94;;;18.91;54.95
68197;BME280;55019;49.382;11.358;2022-07-29T03:31:58;96515.34;;;18.73;55.08
68197;BME280;55019;49.382;11.358;2022-07-29T03:34:23;96515.16;;;18.74;55.40
68197;BME280;55019;49.382;11.358;2022-07-29T03:36:49;96509.97;;;18.68;55.94
68197;BME280;55019;49.382;11.358;2022-07-29T03:39:17;96504.44;;;18.51;55.93
68197;BME280;55019;49.382;11.358;2022-07-29T03:41:46;96506.97;;;18.64;56.12
68197;BME280;55019;49.382;11.358;2022-07-29T03:44:13;96505.69;;;18.49;56.29
68197;BME280;55019;49.382;11.358;2022-07-29T03:46:41;96505.44;;;18.57;55.73
68197;BME280;55019;49.382;11.358;2022-07-29T03:49:11;96505.31;;;18.45;56.78
68197;BME280;55019;49.382;11.358;2022-07-29T03:51:37;96499.53;;;18.37;56.67
68197;BME280;55019;49.382;11.358;2022-07-29T03:54:04;96503.13;;;18.42;56.78
68197;BME280;55019;49.382;11.358;2022-07-29T03:56:32;96501.31;;;18.43;56.42
68197;BME280;55019;49.382;11.358;2022-07-29T03:59:01;96507.75;;;18.40;56.97
68197;BME280;55019;49.382;11.358;2022-07-29T04:01:28;96506.19;;;18.33;57.44
68197;BME280;55019;49.382;11.358;2022-07-29T04:03:55;96511.06;;;18.29;57.25
68197;BME280;55019;49.382;11.358;2022-07-29T04:06:20;96506.00;;;18.34;57.14
68197;BME280;55019;49.382;11.358;2022-07-29T04:08:46;96503.09;;;18.49;56.10
68197;BME280;55019;49.382;11.358;2022-07-29T04:11:12;96507.50;;;18.48;56.77
68197;BME280;55019;49.382;11.358;2022-07-29T04:13:37;96503.25;;;18.54;56.35
68197;BME280;55019;49.382;11.358;2022-07-29T04:16:10;96514.44;;;18.61;56.24
68197;BME280;55019;49.382;11.358;2022-07-29T04:18:35;96515.19;;;18.43;56.09
68197;BME280;55019;49.382;11.358;2022-07-29T04:21:01;96515.06;;;18.32;55.72
68197;BME280;55019;49.382;11.358;2022-07-29T04:23:36;96507.38;;;18.37;55.79
68197;BME280;55019;49.382;11.358;2022-07-29T04:26:01;96508.41;;;18.60;56.27
68197;BME280;55019;49.382;11.358;2022-07-29T04:28:27;96518.47;;;18.63;56.17
68197;BME280;55019;49.382;11.358;2022-07-29T04:30:53;96515.41;;;18.66;56.59
68197;BME280;55019;49.382;11.358;2022-07-29T04:33:18;96526.09;;;18.65;55.72
68197;BME280;55019;49.382;11.358;2022-07-29T04:35:43;96532.94;;;18.66;55.68
68197;BME280;55019;49.382;11.358;2022-07-29T04:38:09;96524.00;;;18.73;56.03
68197;BME280;55019;49.382;11.358;2022-07-29T04:40:34;96528.88;;;18.70;55.45
68197;BME280;55019;49.382;11.358;2022-07-29T04:43:00;96535.66;;;18.77;55.50
68197;BME280;55019;49.382;11.358;2022-07-29T04:45:26;96523.50;;;18.83;54.99
68197;BME280;55019;49.382;11.358;2022-07-29T04:47:52;96521.56;;;18.78;54.17
68197;BME280;55019;49.382;11.358;2022-07-29T04:50:17;96526.41;;;18.75;54.42
68197;BME280;55019;49.382;11.358;2022-07-29T04:52:43;96525.78;;;18.79;54.97
68197;BME280;55019;49.382;11.358;2022-07-29T04:55:08;96531.31;;;18.89;53.86
68197;BME280;55019;49.382;11.358;2022-07-29T04:57:34;96523.47;;;18.89;53.56
68197;BME280;55019;49.382;11.358;2022-07-29T05:00:00;96534.81;;;19.01;53.22
68197;BME280;55019;49.382;11.358;2022-07-29T05:02:25;96533.59;;;19.03;53.75
68197;BME280;55019;49.382;11.358;2022-07-29T05:04:50;96534.97;;;19.06;53.05
68197;BME280;55019;49.382;11.358;2022-07-29T05:07:16;96540.63;;;19.03;54.59
68197;BME280;55019;49.382;11.358;2022-07-29T05:09:41;96538.41;;;19.06;53.17
68197;BME280;55019;49.382;11.358;2022-07-29T05:12:07;96537.44;;;19.01;53.48
68197;BME280;55019;49.382;11.358;2022-07-29T05:14:33;96540.22;;;19.06;54.21
68197;BME280;55019;49.382;11.358;2022-07-29T05:16:58;96545.81;;;19.09;54.32
68197;BME280;55019;49.382;11.358;2022-07-29T05:19:23;96541.81;;;19.07;53.40
68197;BME280;55019;49.382;11.358;2022-07-29T05:21:49;96544.66;;;19.05;55.13
68197;BME280;55019;49.382;11.358;2022-07-29T05:24:15;96538.53;;;19.18;53.74
68197;BME280;55019;49.382;11.358;2022-07-29T05:26:40;96545.38;;;19.19;54.06
68197;BME280;55019;49.382;11.358;2022-07-29T05:29:06;96544.56;;;19.12;53.47
68197;BME280;55019;49.382;11.358;2022-07-29T05:31:31;96549.94;;;18.99;54.42
68197;BME280;55019;49.382;11.358;2022-07-29T05:33:56;96543.91;;;18.98;53.84
68197;BME280;55019;49.382;11.358;2022-07-29T05:36:22;96553.44;;;19.11;51.92
68197;BME280;55019;49.382;11.358;2022-07-29T05:38:47;96547.72;;;19.02;54.11
68197;BME280;55019;49.382;11.358;2022-07-29T05:41:13;96548.34;;;19.22;52.74
68197;BME280;55019;49.382;11.358;2022-07-29T05:43:38;96551.00;;;19.40;52.24
68197;BME280;55019;49.382;11.358;2022-07-29T05:46:13;96557.88;;;19.53;51.16
68197;BME280;55019;49.382;11.358;2022-07-29T05:48:39;96551.88;;;19.52;51.45
68197;BME280;55019;49.382;11.358;2022-07-29T05:51:10;96556.16;;;19.65;52.29
68197;BME280;55019;49.382;11.358;2022-07-29T05:53:36;96560.53;;;19.71;51.64
68197;BME280;55019;49.382;11.358;2022-07-29T05:56:10;96561.97;;;19.85;50.40
68197;BME280;55019;49.382;11.358;2022-07-29T05:58:36;96564.41;;;19.98;50.81
68197;BME280;55019;49.382;11.358;2022-07-29T06:01:02;96560.47;;;20.07;50.88
68197;BME280;55019;49.382;11.358;2022-07-29T06:03:28;96565.59;;;20.31;50.26
68197;BME280;55019;49.382;11.358;2022-07-29T06:05:54;96557.56;;;20.44;50.65
68197;BME280;55019;49.382;11.358;2022-07-29T06:08:19;96551.22;;;20.74;49.17
68197;BME280;55019;49.382;11.358;2022-07-29T06:10:45;96558.81;;;20.94;48.41
68197;BME280;55019;49.382;11.358;2022-07-29T06:13:11;96550.47;;;21.08;45.78
68197;BME280;55019;49.382;11.358;2022-07-29T06:15:37;96558.09;;;21.33;45.59
68197;BME280;55019;49.382;11.358;2022-07-29T06:18:02;96552.97;;;21.49;46.71
68197;BME280;55019;49.382;11.358;2022-07-29T06:20:28;96552.50;;;21.52;45.83
68197;BME280;55019;49.382;11.358;2022-07-29T06:22:57;96561.88;;;21.71;45.33
68197;BME280;55019;49.382;11.358;2022-07-29T06:25:23;96567.53;;;21.91;45.36
68197;BME280;55019;49.382;11.358;2022-07-29T06:27:48;96559.88;;;21.90;45.07
68197;BME280;55019;49.382;11.358;2022-07-29T06:30:13;96566.31;;;22.10;45.23
68197;BME280;55019;49.382;11.358;2022-07-29T06:32:39;96564.38;;;22.45;43.51
68197;BME280;55019;49.382;11.358;2022-07-29T06:35:05;96562.97;;;22.26;44.90
68197;BME280;55019;49.382;11.358;2022-07-29T06:37:30;96557.28;;;22.06;45.90
68197;BME280;55019;49.382;11.358;2022-07-29T06:39:56;96562.25;;;22.02;45.55
68197;BME280;55019;49.382;11.358;2022-07-29T06:42:43;96563.53;;;21.89;45.82
68197;BME280;55019;49.382;11.358;2022-07-29T06:45:10;96560.50;;;21.69;46.62
68197;BME280;55019;49.382;11.358;2022-07-29T06:47:38;96563.81;;;21.64;47.04
68197;BME280;55019;49.382;11.358;2022-07-29T06:50:04;96563.34;;;21.67;47.11
68197;BME280;55019;49.382;11.358;2022-07-29T06:52:30;96562.53;;;21.55;48.27
68197;BME280;55019;49.382;11.358;2022-07-29T06:54:55;96562.78;;;21.65;47.49
68197;BME280;55019;49.382;11.358;2022-07-29T06:57:21;96560.13;;;21.77;46.72
68197;BME280;55019;49.382;11.358;2022-07-29T06:59:46;96563.94;;;21.69;47.66
68197;BME280;55019;49.382;11.358;2022-07-29T07:02:12;96571.66;;;21.87;47.17
68197;BME280;55019;49.382;11.358;2022-07-29T07:04:38;96573.38;;;21.82;46.78
68197;BME280;55019;49.382;11.358;2022-07-29T07:07:03;96575.88;;;21.99;47.40
68197;BME280;55019;49.382;11.358;2022-07-29T07:09:28;96573.00;;;22.57;46.14
68197;BME280;55019;49.382;11.358;2022-07-29T07:11:54;96572.00;;;22.91;44.39
68197;BME280;55019;49.382;11.358;2022-07-29T07:14:19;96573.81;;;23.07;43.68
68197;BME280;55019;49.382;11.358;2022-07-29T07:16:44;96572.34;;;23.11;44.87
68197;BME280;55019;49.382;11.358;2022-07-29T07:19:10;96572.41;;;23.32;43.98
68197;BME280;55019;49.382;11.358;2022-07-29T07:21:35;96566.16;;;23.22;45.66
68197;BME280;55019;49.382;11.358;2022-07-29T07:24:01;96575.91;;;23.05;44.98
68197;BME280;55019;49.382;11.358;2022-07-29T07:26:26;96564.88;;;23.08;45.79
68197;BME280;55019;49.382;11.358;2022-07-29T07:28:52;96568.72;;;23.33;43.72
68197;BME280;55019;49.382;11.358;2022-07-29T07:31:20;96564.03;;;23.56;43.31
68197;BME280;55019;49.382;11.358;2022-07-29T07:33:46;96568.09;;;23.80;42.92
68197;BME280;55019;49.382;11.358;2022-07-29T07:36:11;96567.03;;;23.81;43.31
68197;BME280;55019;49.382;11.358;2022-07-29T07:38:37;96577.59;;;23.81;43.49
68197;BME280;55019;49.382;11.358;2022-07-29T07:41:02;96569.75;;;23.86;43.81
68197;BME280;55019;49.382;11.358;2022-07-29T07:43:28;96571.88;;;23.89;42.30
68197;BME280;55019;49.382;11.358;2022-07-29T07:45:53;96562.44;;;24.41;41.48
68197;BME280;55019;49.382;11.358;2022-07-29T07:48:19;96571.44;;;24.45;40.23
68197;BME280;55019;49.382;11.358;2022-07-29T07:50:44;96571.63;;;24.12;41.83
68197;BME280;55019;49.382;11.358;2022-07-29T07:53:09;96569.03;;;23.96;41.57
68197;BME280;55019;49.382;11.358;2022-07-29T07:55:40;96566.44;;;23.58;42.14
68197;BME280;55019;49.382;11.358;2022-07-29T07:58:06;96563.16;;;23.30;43.70
68197;BME280;55019;49.382;11.358;2022-07-29T08:00:31;96570.94;;;23.41;43.82
68197;BME280;55019;49.382;11.358;2022-07-29T08:02:58;96569.00;;;23.91;42.96
68197;BME280;55019;49.382;11.358;2022-07-29T08:05:26;96564.94;;;24.26;42.14
68197;BME280;55019;49.382;11.358;2022-07-29T08:07:51;96555.56;;;24.40;40.77
68197;BME280;55019;49.382;11.358;2022-07-29T08:10:18;96559.81;;;24.99;41.08
68197;BME280;55019;49.382;11.358;2022-07-29T08:13:08;96550.31;;;25.39;39.31
68197;BME280;55019;49.382;11.358;2022-07-29T08:15:34;96556.56;;;25.23;39.86
68197;BME280;55019;49.382;11.358;2022-07-29T08:18:01;96560.47;;;25.52;39.24
68197;BME280;55019;49.382;11.358;2022-07-29T08:20:27;96551.22;;;25.60;40.86
68197;BME280;55019;49.382;11.358;2022-07-29T08:22:52;96559.44;;;26.20;39.39
68197;BME280;55019;49.382;11.358;2022-07-29T08:25:18;96552.84;;;26.27;39.21
68197;BME280;55019;49.382;11.358;2022-07-29T08:27:49;96544.47;;;27.05;38.66
68197;BME280;55019;49.382;11.358;2022-07-29T08:30:14;96547.84;;;27.55;37.70
68197;BME280;55019;49.382;11.358;2022-07-29T08:32:39;96553.75;;;27.37;36.42
68197;BME280;55019;49.382;11.358;2022-07-29T08:35:05;96554.81;;;27.21;37.36
68197;BME280;55019;49.382;11.358;2022-07-29T08:37:31;96552.16;;;27.26;37.76
68197;BME280;55019;49.382;11.358;2022-07-29T08:39:56;96552.66;;;26.63;38.52
68197;BME280;55019;49.382;11.358;2022-07-29T08:42:21;96555.19;;;26.19;38.38
68197;BME280;55019;49.382;11.358;2022-07-29T08:44:47;96557.31;;;26.12;40.17
68197;BME280;55019;49.382;11.358;2022-07-29T08:47:14;96562.41;;;25.72;40.53
68197;BME280;55019;49.382;11.358;2022-07-29T08:49:39;96561.19;;;25.89;40.11
68197;BME280;55019;49.382;11.358;2022-07-29T08:52:06;96559.72;;;26.18;40.08
68197;BME280;55019;49.382;11.358;2022-07-29T08:54:32;96548.34;;;26.28;38.90
68197;BME280;55019;49.382;11.358;2022-07-29T08:56:59;96555.31;;;26.68;40.49
68197;BME280;55019;49.382;11.358;2022-07-29T08:59:27;96560.09;;;27.41;38.19
68197;BME280;55019;49.382;11.358;2022-07-29T09:01:53;96552.31;;;27.85;36.75
68197;BME280;55019;49.382;11.358;2022-07-29T09:04:20;96552.63;;;27.53;37.63
68197;BME280;55019;49.382;11.358;2022-07-29T09:06:48;96550.03;;;26.93;39.08
68197;BME280;55019;49.382;11.358;2022-07-29T09:09:14;96544.22;;;26.81;38.48
68197;BME280;55019;49.382;11.358;2022-07-29T09:11:41;96540.47;;;26.58;39.81
68197;BME280;55019;49.382;11.358;2022-07-29T09:14:07;96543.41;;;26.96;39.23
68197;BME280;55019;49.382;11.358;2022-07-29T09:16:47;96543.66;;;26.50;39.90
68197;BME280;55019;49.382;11.358;2022-07-29T09:19:20;96541.44;;;26.27;40.28
68197;BME280;55019;49.382;11.358;2022-07-29T09:21:46;96541.44;;;26.22;40.21
68197;BME280;55019;49.382;11.358;2022-07-29T09:24:25;96535.72;;;26.89;38.93
68197;BME280;55019;49.382;11.358;2022-07-29T09:26:50;96537.97;;;27.81;37.93
68197;BME280;55019;49.382;11.358;2022-07-29T09:29:18;96539.00;;;28.48;36.78
68197;BME280;55019;49.382;11.358;2022-07-29T09:31:49;96536.88;;;29.17;34.59
68197;BME280;55019;49.382;11.358;2022-07-29T09:34:21;96531.38;;;29.37;34.74
68197;BME280;55019;49.382;11.358;2022-07-29T09:36:49;96529.53;;;30.07;32.65
68197;BME280;55019;49.382;11.358;2022-07-29T09:39:27;96532.38;;;29.92;32.06
68197;BME280;55019;49.382;11.358;2022-07-29T09:41:55;96535.38;;;30.09;34.07
68197;BME280;55019;49.382;11.358;2022-07-29T09:44:22;96530.00;;;30.70;32.22
68197;BME280;55019;49.382;11.358;2022-07-29T09:46:59;96529.81;;;30.98;32.55
68197;BME280;55019;49.382;11.358;2022-07-29T09:49:31;96527.22;;;30.93;33.26
68197;BME280;55019;49.382;11.358;2022-07-29T09:52:04;96526.47;;;30.56;33.28
68197;BME280;55019;49.382;11.358;2022-07-29T09:54:29;96521.06;;;31.11;32.31
68197;BME280;55019;49.382;11.358;2022-07-29T09:57:02;96526.88;;;31.45;32.03
68197;BME280;55019;49.382;11.358;2022-07-29T09:59:28;96518.94;;;31.53;31.67
68197;BME280;55019;49.382;11.358;2022-07-29T10:01:53;96522.09;;;31.28;31.49
68197;BME280;55019;49.382;11.358;2022-07-29T10:04:19;96511.56;;;31.91;30.07
68197;BME280;55019;49.382;11.358;2022-07-29T10:06:59;96510.06;;;31.58;31.26
68197;BME280;55019;49.382;11.358;2022-07-29T10:09:25;96512.84;;;31.93;30.81
68197;BME280;55019;49.382;11.358;2022-07-29T10:12:10;96512.84;;;32.07;31.48
68197;BME280;55019;49.382;11.358;2022-07-29T10:14:42;96512.03;;;31.07;31.81
68197;BME280;55019;49.382;11.358;2022-07-29T10:17:09;96503.34;;;31.47;32.09
68197;BME280;55019;49.382;11.358;2022-07-29T10:19:36;96506.97;;;31.37;31.19
68197;BME280;55019;49.382;11.358;2022-07-29T10:22:06;96512.91;;;31.61;31.76
68197;BME280;55019;49.382;11.358;2022-07-29T10:24:32;96514.41;;;31.54;31.41
68197;BME280;55019;49.382;11.358;2022-07-29T10:26:59;96508.91;;;30.87;32.05
68197;BME280;55019;49.382;11.358;2022-07-29T10:29:26;96506.97;;;31.06;32.40
68197;BME280;55019;49.382;11.358;2022-07-29T10:44:14;96502.69;;;32.31;31.41
68197;BME280;55019;49.382;11.358;2022-07-29T10:46:39;96494.47;;;32.63;31.37
68197;BME280;55019;49.382;11.358;2022-07-29T10:49:11;96502.38;;;32.46;30.85
68197;BME280;55019;49.382;11.358;2022-07-29T10:54:40;96494.41;;;32.05;31.72
68197;BME280;55019;49.382;11.358;2022-07-29T10:59:49;96488.03;;;32.64;30.71
68197;BME280;55019;49.382;11.358;2022-07-29T11:07:37;96471.16;;;33.29;30.85
68197;BME280;55019;49.382;11.358;2022-07-29T11:15:10;96468.75;;;34.05;28.51
68197;BME280;55019;49.382;11.358;2022-07-29T11:20:44;96457.16;;;33.10;29.67
68197;BME280;55019;49.382;11.358;2022-07-29T11:23:26;96466.34;;;31.54;32.23
68197;BME280;55019;49.382;11.358;2022-07-29T11:26:15;96461.34;;;30.06;35.11
68197;BME280;55019;49.382;11.358;2022-07-29T11:29:14;96460.75;;;29.67;34.90
68197;BME280;55019;49.382;11.358;2022-07-29T11:31:49;96450.47;;;29.33;35.75
68197;BME280;55019;49.382;11.358;2022-07-29T11:45:07;96456.81;;;28.85;37.80
68197;BME280;55019;49.382;11.358;2022-07-29T11:47:46;96456.94;;;28.70;37.09
68197;BME280;55019;49.382;11.358;2022-07-29T11:50:26;96454.31;;;28.65;37.66
68197;BME280;55019;49.382;11.358;2022-07-29T11:52:52;96455.63;;;28.39;37.73
68197;BME280;55019;49.382;11.358;2022-07-29T11:55:20;96452.06;;;28.10;37.15
68197;BME280;55019;49.382;11.358;2022-07-29T11:57:49;96446.31;;;28.36;37.92
68197;BME280;55019;49.382;11.358;2022-07-29T12:00:45;96453.00;;;28.24;37.27
68197;BME280;55019;49.382;11.358;2022-07-29T12:03:11;96448.78;;;28.23;38.27
68197;BME280;55019;49.382;11.358;2022-07-29T12:05:42;96444.47;;;28.32;37.88
68197;BME280;55019;49.382;11.358;2022-07-29T12:10:40;96447.38;;;27.92;37.79
68197;BME280;55019;49.382;11.358;2022-07-29T12:13:06;96443.22;;;27.66;38.74
68197;BME280;55019;49.382;11.358;2022-07-29T12:15:32;96443.78;;;27.63;38.96
68197;BME280;55019;49.382;11.358;2022-07-29T12:18:14;96441.72;;;27.50;38.97
68197;BME280;55019;49.382;11.358;2022-07-29T12:20:40;96443.00;;;27.63;39.52
68197;BME280;55019;49.382;11.358;2022-07-29T12:23:07;96444.31;;;27.60;40.85
68197;BME280;55019;49.382;11.358;2022-07-29T12:25:43;96437.50;;;27.44;39.97
68197;BME280;55019;49.382;11.358;2022-07-29T12:28:11;96436.41;;;28.47;41.08
68197;BME280;55019;49.382;11.358;2022-07-29T12:30:48;96429.44;;;29.60;39.00
68197;BME280;55019;49.382;11.358;2022-07-29T12:33:20;96427.63;;;30.15;34.57
68197;BME280;55019;49.382;11.358;2022-07-29T12:35:49;96423.53;;;29.39;36.88
68197;BME280;55019;49.382;11.358;2022-07-29T12:38:15;96418.75;;;29.83;35.33
68197;BME280;55019;49.382;11.358;2022-07-29T12:40:41;96426.09;;;30.28;34.02
68197;BME280;55019;49.382;11.358;2022-07-29T12:43:09;96412.44;;;30.16;34.01
68197;BME280;55019;49.382;11.358;2022-07-29T12:45:39;96424.25;;;29.50;35.73
68197;BME280;55019;49.382;11.358;2022-07-29T12:48:05;96419.47;;;29.00;36.32
68197;BME280;55019;49.382;11.358;2022-07-29T12:50:55;96423.28;;;28.55;37.28
68197;BME280;55019;49.382;11.358;2022-07-29T12:53:20;96442.28;;;28.44;36.73
68197;BME280;55019;49.382;11.358;2022-07-29T12:55:48;96453.16;;;28.04;37.84
68197;BME280;55019;49.382;11.358;2022-07-29T13:01:20;96458.06;;;26.59;39.24
68197;BME280;55019;49.382;11.358;2022-07-29T13:06:44;96451.38;;;26.27;37.66
68197;BME280;55019;49.382;11.358;2022-07-29T13:09:15;96447.88;;;25.86;37.47
68197;BME280;55019;49.382;11.358;2022-07-29T13:14:09;96442.28;;;25.78;38.40
68197;BME280;55019;49.382;11.358;2022-07-29T13:16:36;96457.03;;;25.59;38.94
68197;BME280;55019;49.382;11.358;2022-07-29T13:19:10;96449.09;;;25.59;38.56
68197;BME280;55019;49.382;11.358;2022-07-29T13:21:37;96458.78;;;25.33;40.81
68197;BME280;55019;49.382;11.358;2022-07-29T13:24:05;96466.41;;;25.25;42.28
68197;BME280;55019;49.382;11.358;2022-07-29T13:26:31;96489.41;;;24.88;44.22
68197;BME280;55019;49.382;11.358;2022-07-29T13:28:57;96519.16;;;24.74;45.74
68197;BME280;55019;49.382;11.358;2022-07-29T13:31:23;96535.75;;;24.69;46.53
68197;BME280;55019;49.382;11.358;2022-07-29T13:33:49;96527.25;;;24.62;49.21
68197;BME280;55019;49.382;11.358;2022-07-29T13:36:14;96528.16;;;24.20;51.99
68197;BME280;55019;49.382;11.358;2022-07-29T13:38:40;96523.59;;;23.72;53.08
68197;BME280;55019;49.382;11.358;2022-07-29T13:41:05;96507.16;;;23.44;51.91
68197;BME280;55019;49.382;11.358;2022-07-29T13:43:31;96506.25;;;23.34;58.64
68197;BME280;55019;49.382;11.358;2022-07-29T13:45:56;96506.91;;;23.24;53.99
68197;BME280;55019;49.382;11.358;2022-07-29T13:48:22;96513.31;;;22.95;60.29
68197;BME280;55019;49.382;11.358;2022-07-29T13:50:47;96510.03;;;23.05;60.52
68197;BME280;55019;49.382;11.358;2022-07-29T13:53:13;96515.09;;;22.90;62.67
68197;BME280;55019;49.382;11.358;2022-07-29T13:55:39;96505.47;;;23.17;62.59
68197;BME280;55019;49.382;11.358;2022-07-29T13:58:04;96503.88;;;23.16;63.25
68197;BME280;55019;49.382;11.358;2022-07-29T14:00:30;96518.81;;;23.27;61.39